Mir — UFPV — position and weather

sailwx.info

Track history (hours):
 
Tides and Currents Weather Stations Pressure Air Temp Water Temp Dewpoint Dewpoint Depression Visibility Wind Speed Wind Dir Waves Ship Positions

Mir (Russia)

Last reported at 2020-Sep-26 07:00 UTC. Time now 2020-Sep-26 07:18 UTC.
Position N 59°52' E 025°46'.

Length 109 m; draft 6.5 m.

Type: Sailing vessel. MMSI: 273133767.

Date/timePositionNaut miles runAvg speedWind from/ knotsBaromVisibWave heightAir tempDewpointWater temp
2020-Sep-26 07:00N 59°52' E 025°46'3 6.0
2020-Sep-26 06:30N 59°51' E 025°40'6 5.7
2020-Sep-26 05:30N 59°50' E 025°29'30 5.9
2020-Sep-26 00:31N 59°44' E 024°31'6 6.2
2020-Sep-25 23:31N 59°42' E 024°19'104 5.8
2020-Sep-25 05:39N 58°47' E 021°28'178 4.2
2020-Sep-23 10:59N 56°12' E 018°44'3 4.6
2020-Sep-23 10:25N 56°10' E 018°40'60 3.3
2020-Sep-22 16:30N 55°33' E 017°17'1 1.9
2020-Sep-22 16:00N 55°32' E 017°16'1 1.4
2020-Sep-22 15:21N 55°32' E 017°15'3 0.9
2020-Sep-22 12:00N 55°29' E 017°12'1 0.5
2020-Sep-22 11:00N 55°29' E 017°13'1 0.6
2020-Sep-22 10:00N 55°28' E 017°14'0 0.6
2020-Sep-22 09:30N 55°28' E 017°14'1 0.5
2020-Sep-22 08:00N 55°28' E 017°15'0 0.5
2020-Sep-22 07:30N 55°27' E 017°15'0 0.6
2020-Sep-22 07:00N 55°27' E 017°15'1 0.4
2020-Sep-22 04:58N 55°26' E 017°17'0 0.3
2020-Sep-22 04:00N 55°26' E 017°17'0 0.4
2020-Sep-22 03:30N 55°26' E 017°17'3 0.6
2020-Sep-21 23:00N 55°23' E 017°18'1 0.7
2020-Sep-21 22:00N 55°23' E 017°18'0 0.7
2020-Sep-21 21:30N 55°22' E 017°18'1 0.6
2020-Sep-21 20:30N 55°22' E 017°18'2 0.6
2020-Sep-21 17:30N 55°20' E 017°20'1 0.4
2020-Sep-21 15:59N 55°20' E 017°21'1 0.4
2020-Sep-21 14:00N 55°19' E 017°21'1 0.4
2020-Sep-21 10:12N 55°21' E 017°21'1 0.3
2020-Sep-21 07:22N 55°21' E 017°20'1 0.3
2020-Sep-21 05:30N 55°22' E 017°19'1 0.2
2020-Sep-21 01:26N 55°22' E 017°18'1 0.2
2020-Sep-20 19:20N 55°22' E 017°15'0 0.2
2020-Sep-20 19:00N 55°22' E 017°15'0 0.3
2020-Sep-20 17:55N 55°22' E 017°15'4 0.3
2020-Sep-20 05:32N 55°19' E 017°11'12 0.5
2020-Sep-19 06:37N 55°12' E 016°55'13 3.0
2020-Sep-19 02:09N 55°09' E 016°32'13 3.3
2020-Sep-18 22:10N 55°04' E 016°11'11 4.3
2020-Sep-18 19:35N 54°59' E 015°54'8 0.2
2020-Sep-17 00:14N 54°57' E 015°40'36 4.6
2020-Sep-16 16:25N 55°07' E 016°39'3 0.7
2020-Sep-16 11:50N 55°10' E 016°39'4 0.7
2020-Sep-16 07:00N 55°14' E 016°37'  
Track history (hours):
 
Tides and Currents Weather Stations Pressure Air Temp Water Temp Dewpoint Dewpoint Depression Visibility Wind Speed Wind Dir Waves Ship Positions

Mir (Russia)

Last reported at 2020-Sep-26 07:00 UTC. Time now 2020-Sep-26 07:18 UTC.
Position N 59°52' E 025°46'.

Length 109 m; draft 6.5 m.

Type: Sailing vessel. MMSI: 273133767.

Date/timePositionNaut miles runAvg speedWind from/ knotsBaromVisibWave heightAir tempDewpointWater temp
2020-Sep-26 07:00N 59°52' E 025°46'3 6.0
2020-Sep-26 06:30N 59°51' E 025°40'6 5.7
2020-Sep-26 05:30N 59°50' E 025°29'30 5.9
2020-Sep-26 00:31N 59°44' E 024°31'6 6.2
2020-Sep-25 23:31N 59°42' E 024°19'104 5.8
2020-Sep-25 05:39N 58°47' E 021°28'178 4.2
2020-Sep-23 10:59N 56°12' E 018°44'3 4.6
2020-Sep-23 10:25N 56°10' E 018°40'60 3.3
2020-Sep-22 16:30N 55°33' E 017°17'1 1.9
2020-Sep-22 16:00N 55°32' E 017°16'1 1.4
2020-Sep-22 15:21N 55°32' E 017°15'3 0.9
2020-Sep-22 12:00N 55°29' E 017°12'1 0.5
2020-Sep-22 11:00N 55°29' E 017°13'1 0.6
2020-Sep-22 10:00N 55°28' E 017°14'0 0.6
2020-Sep-22 09:30N 55°28' E 017°14'1 0.5
2020-Sep-22 08:00N 55°28' E 017°15'0 0.5
2020-Sep-22 07:30N 55°27' E 017°15'0 0.6
2020-Sep-22 07:00N 55°27' E 017°15'1 0.4
2020-Sep-22 04:58N 55°26' E 017°17'0 0.3
2020-Sep-22 04:00N 55°26' E 017°17'0 0.4
2020-Sep-22 03:30N 55°26' E 017°17'3 0.6
2020-Sep-21 23:00N 55°23' E 017°18'1 0.7
2020-Sep-21 22:00N 55°23' E 017°18'0 0.7
2020-Sep-21 21:30N 55°22' E 017°18'1 0.6
2020-Sep-21 20:30N 55°22' E 017°18'2 0.6
2020-Sep-21 17:30N 55°20' E 017°20'1 0.4
2020-Sep-21 15:59N 55°20' E 017°21'1 0.4
2020-Sep-21 14:00N 55°19' E 017°21'1 0.4
2020-Sep-21 10:12N 55°21' E 017°21'1 0.3
2020-Sep-21 07:22N 55°21' E 017°20'1 0.3
2020-Sep-21 05:30N 55°22' E 017°19'1 0.2
2020-Sep-21 01:26N 55°22' E 017°18'1 0.2
2020-Sep-20 19:20N 55°22' E 017°15'0 0.2
2020-Sep-20 19:00N 55°22' E 017°15'0 0.3
2020-Sep-20 17:55N 55°22' E 017°15'4 0.3
2020-Sep-20 05:32N 55°19' E 017°11'12 0.5
2020-Sep-19 06:37N 55°12' E 016°55'13 3.0
2020-Sep-19 02:09N 55°09' E 016°32'13 3.3
2020-Sep-18 22:10N 55°04' E 016°11'11 4.3
2020-Sep-18 19:35N 54°59' E 015°54'8 0.2
2020-Sep-17 00:14N 54°57' E 015°40'36 4.6
2020-Sep-16 16:25N 55°07' E 016°39'3 0.7
2020-Sep-16 11:50N 55°10' E 016°39'4 0.7
2020-Sep-16 07:00N 55°14' E 016°37'  

Dump ship's entire track history